sensor_id;sensor_type;location;lat;lon;timestamp;temperature;humidity
4097;DHT22;2062;50.694;7.246;2024-03-22T00:00:40;10.90;54.00
4097;DHT22;2062;50.694;7.246;2024-03-22T00:03:08;10.90;54.10
4097;DHT22;2062;50.694;7.246;2024-03-22T00:05:34;10.90;54.20
4097;DHT22;2062;50.694;7.246;2024-03-22T00:08:01;10.90;54.20
4097;DHT22;2062;50.694;7.246;2024-03-22T00:10:27;10.90;54.10
4097;DHT22;2062;50.694;7.246;2024-03-22T00:12:54;10.90;54.20
4097;DHT22;2062;50.694;7.246;2024-03-22T00:15:20;10.90;54.30
4097;DHT22;2062;50.694;7.246;2024-03-22T00:17:47;10.90;54.10
4097;DHT22;2062;50.694;7.246;2024-03-22T00:20:14;11.00;54.10
4097;DHT22;2062;50.694;7.246;2024-03-22T00:22:41;10.90;54.30
4097;DHT22;2062;50.694;7.246;2024-03-22T00:25:07;10.90;54.10
4097;DHT22;2062;50.694;7.246;2024-03-22T00:27:34;10.90;54.20
4097;DHT22;2062;50.694;7.246;2024-03-22T00:30:00;10.90;54.00
4097;DHT22;2062;50.694;7.246;2024-03-22T00:32:26;10.90;54.30
4097;DHT22;2062;50.694;7.246;2024-03-22T00:34:52;10.80;54.20
4097;DHT22;2062;50.694;7.246;2024-03-22T00:37:20;10.80;54.20
4097;DHT22;2062;50.694;7.246;2024-03-22T00:39:46;10.80;54.10
4097;DHT22;2062;50.694;7.246;2024-03-22T00:42:13;10.80;54.30
4097;DHT22;2062;50.694;7.246;2024-03-22T00:44:40;10.80;54.20
4097;DHT22;2062;50.694;7.246;2024-03-22T00:47:07;10.80;54.20
4097;DHT22;2062;50.694;7.246;2024-03-22T00:49:32;10.80;54.20
4097;DHT22;2062;50.694;7.246;2024-03-22T00:52:00;10.80;54.20
4097;DHT22;2062;50.694;7.246;2024-03-22T00:54:27;10.80;54.30
4097;DHT22;2062;50.694;7.246;2024-03-22T00:56:53;10.80;54.40
4097;DHT22;2062;50.694;7.246;2024-03-22T00:59:19;10.80;54.50
4097;DHT22;2062;50.694;7.246;2024-03-22T01:01:46;10.80;54.40
4097;DHT22;2062;50.694;7.246;2024-03-22T01:04:12;10.90;54.50
4097;DHT22;2062;50.694;7.246;2024-03-22T01:06:39;10.80;54.30
4097;DHT22;2062;50.694;7.246;2024-03-22T01:09:05;10.80;54.50
4097;DHT22;2062;50.694;7.246;2024-03-22T01:11:34;10.80;54.50
4097;DHT22;2062;50.694;7.246;2024-03-22T01:14:00;10.80;54.40
4097;DHT22;2062;50.694;7.246;2024-03-22T01:16:26;10.90;54.60
4097;DHT22;2062;50.694;7.246;2024-03-22T01:18:52;10.90;54.60
4097;DHT22;2062;50.694;7.246;2024-03-22T01:21:19;10.90;54.60
4097;DHT22;2062;50.694;7.246;2024-03-22T01:23:50;10.80;54.60
4097;DHT22;2062;50.694;7.246;2024-03-22T01:26:17;10.90;54.80
4097;DHT22;2062;50.694;7.246;2024-03-22T01:28:44;10.80;54.60
4097;DHT22;2062;50.694;7.246;2024-03-22T01:31:11;10.80;54.60
4097;DHT22;2062;50.694;7.246;2024-03-22T01:33:37;10.80;54.60
4097;DHT22;2062;50.694;7.246;2024-03-22T01:36:04;10.80;55.30
4097;DHT22;2062;50.694;7.246;2024-03-22T01:38:30;10.80;54.70
4097;DHT22;2062;50.694;7.246;2024-03-22T01:40:57;10.80;54.80
4097;DHT22;2062;50.694;7.246;2024-03-22T01:43:24;10.80;54.90
4097;DHT22;2062;50.694;7.246;2024-03-22T01:45:52;10.80;54.80
4097;DHT22;2062;50.694;7.246;2024-03-22T01:48:18;10.80;54.80
4097;DHT22;2062;50.694;7.246;2024-03-22T01:50:45;10.80;55.00
4097;DHT22;2062;50.694;7.246;2024-03-22T01:53:12;10.80;55.00
4097;DHT22;2062;50.694;7.246;2024-03-22T01:55:39;10.80;55.00
4097;DHT22;2062;50.694;7.246;2024-03-22T01:58:05;10.80;54.80
4097;DHT22;2062;50.694;7.246;2024-03-22T02:00:33;10.80;55.00
4097;DHT22;2062;50.694;7.246;2024-03-22T02:03:00;10.70;54.80
4097;DHT22;2062;50.694;7.246;2024-03-22T02:05:26;10.80;54.80
4097;DHT22;2062;50.694;7.246;2024-03-22T02:07:52;10.70;54.90
4097;DHT22;2062;50.694;7.246;2024-03-22T02:10:19;10.70;54.80
4097;DHT22;2062;50.694;7.246;2024-03-22T02:12:46;10.80;54.80
4097;DHT22;2062;50.694;7.246;2024-03-22T02:15:12;10.70;55.00
4097;DHT22;2062;50.694;7.246;2024-03-22T02:17:38;10.80;55.20
4097;DHT22;2062;50.694;7.246;2024-03-22T02:20:07;10.80;55.10
4097;DHT22;2062;50.694;7.246;2024-03-22T02:22:33;10.70;55.00
4097;DHT22;2062;50.694;7.246;2024-03-22T02:25:02;10.80;54.90
4097;DHT22;2062;50.694;7.246;2024-03-22T02:27:27;10.80;55.30
4097;DHT22;2062;50.694;7.246;2024-03-22T02:29:54;10.70;55.10
4097;DHT22;2062;50.694;7.246;2024-03-22T02:32:20;10.70;55.30
4097;DHT22;2062;50.694;7.246;2024-03-22T02:34:47;10.70;55.30
4097;DHT22;2062;50.694;7.246;2024-03-22T02:37:13;10.80;55.10
4097;DHT22;2062;50.694;7.246;2024-03-22T02:39:40;10.70;55.10
4097;DHT22;2062;50.694;7.246;2024-03-22T02:42:07;10.80;55.20
4097;DHT22;2062;50.694;7.246;2024-03-22T02:44:34;10.80;55.20
4097;DHT22;2062;50.694;7.246;2024-03-22T02:47:00;10.80;55.20
4097;DHT22;2062;50.694;7.246;2024-03-22T02:49:26;10.80;55.40
4097;DHT22;2062;50.694;7.246;2024-03-22T02:51:52;10.80;55.30
4097;DHT22;2062;50.694;7.246;2024-03-22T02:54:19;10.80;55.40
4097;DHT22;2062;50.694;7.246;2024-03-22T02:56:45;10.80;55.20
4097;DHT22;2062;50.694;7.246;2024-03-22T02:59:13;10.80;55.50
4097;DHT22;2062;50.694;7.246;2024-03-22T03:01:39;10.80;55.60
4097;DHT22;2062;50.694;7.246;2024-03-22T03:04:05;10.80;55.40
4097;DHT22;2062;50.694;7.246;2024-03-22T03:06:31;10.80;55.30
4097;DHT22;2062;50.694;7.246;2024-03-22T03:08:58;10.90;55.70
4097;DHT22;2062;50.694;7.246;2024-03-22T03:11:24;10.90;55.60
4097;DHT22;2062;50.694;7.246;2024-03-22T03:13:50;10.90;55.40
4097;DHT22;2062;50.694;7.246;2024-03-22T03:16:18;10.90;55.70
4097;DHT22;2062;50.694;7.246;2024-03-22T03:18:44;10.90;55.70
4097;DHT22;2062;50.694;7.246;2024-03-22T03:21:10;11.00;55.40
4097;DHT22;2062;50.694;7.246;2024-03-22T03:23:37;10.90;55.80
4097;DHT22;2062;50.694;7.246;2024-03-22T03:26:03;10.90;55.60
4097;DHT22;2062;50.694;7.246;2024-03-22T03:28:30;11.00;55.70
4097;DHT22;2062;50.694;7.246;2024-03-22T03:30:55;11.00;55.60
4097;DHT22;2062;50.694;7.246;2024-03-22T03:33:24;11.00;56.00
4097;DHT22;2062;50.694;7.246;2024-03-22T03:35:50;11.00;55.60
4097;DHT22;2062;50.694;7.246;2024-03-22T03:38:16;11.10;55.70
4097;DHT22;2062;50.694;7.246;2024-03-22T03:40:42;11.10;55.70
4097;DHT22;2062;50.694;7.246;2024-03-22T03:43:09;11.10;55.70
4097;DHT22;2062;50.694;7.246;2024-03-22T03:45:36;11.20;55.90
4097;DHT22;2062;50.694;7.246;2024-03-22T03:48:04;11.10;55.90
4097;DHT22;2062;50.694;7.246;2024-03-22T03:50:31;11.10;56.00
4097;DHT22;2062;50.694;7.246;2024-03-22T03:52:58;11.20;55.90
4097;DHT22;2062;50.694;7.246;2024-03-22T03:55:24;11.20;56.30
4097;DHT22;2062;50.694;7.246;2024-03-22T03:57:51;11.20;55.90
4097;DHT22;2062;50.694;7.246;2024-03-22T04:00:17;11.20;55.80
4097;DHT22;2062;50.694;7.246;2024-03-22T04:02:44;11.20;56.10
4097;DHT22;2062;50.694;7.246;2024-03-22T04:05:09;11.20;56.30
4097;DHT22;2062;50.694;7.246;2024-03-22T04:07:38;11.20;56.00
4097;DHT22;2062;50.694;7.246;2024-03-22T04:10:05;11.30;56.10
4097;DHT22;2062;50.694;7.246;2024-03-22T04:12:32;11.20;56.00
4097;DHT22;2062;50.694;7.246;2024-03-22T04:14:57;11.30;56.10
4097;DHT22;2062;50.694;7.246;2024-03-22T04:17:24;11.30;56.40
4097;DHT22;2062;50.694;7.246;2024-03-22T04:19:50;11.30;56.20
4097;DHT22;2062;50.694;7.246;2024-03-22T04:22:17;11.40;56.10
4097;DHT22;2062;50.694;7.246;2024-03-22T04:24:44;11.40;56.30
4097;DHT22;2062;50.694;7.246;2024-03-22T04:27:11;11.40;56.20
4097;DHT22;2062;50.694;7.246;2024-03-22T04:29:37;11.40;56.10
4097;DHT22;2062;50.694;7.246;2024-03-22T04:32:04;11.40;56.20
4097;DHT22;2062;50.694;7.246;2024-03-22T04:34:29;11.40;56.40
4097;DHT22;2062;50.694;7.246;2024-03-22T04:36:56;11.40;56.10
4097;DHT22;2062;50.694;7.246;2024-03-22T04:39:23;11.40;56.30
4097;DHT22;2062;50.694;7.246;2024-03-22T04:41:52;11.40;56.30
4097;DHT22;2062;50.694;7.246;2024-03-22T04:44:18;11.40;56.20
4097;DHT22;2062;50.694;7.246;2024-03-22T04:46:45;11.40;56.20
4097;DHT22;2062;50.694;7.246;2024-03-22T04:49:11;11.40;57.00
4097;DHT22;2062;50.694;7.246;2024-03-22T04:51:38;11.40;56.20
4097;DHT22;2062;50.694;7.246;2024-03-22T04:54:04;11.40;56.30
4097;DHT22;2062;50.694;7.246;2024-03-22T04:56:31;11.40;56.10
4097;DHT22;2062;50.694;7.246;2024-03-22T04:58:59;11.40;56.10
4097;DHT22;2062;50.694;7.246;2024-03-22T05:01:25;11.40;56.10
4097;DHT22;2062;50.694;7.246;2024-03-22T05:03:52;11.40;56.00
4097;DHT22;2062;50.694;7.246;2024-03-22T05:06:17;11.40;56.10
4097;DHT22;2062;50.694;7.246;2024-03-22T05:08:45;11.50;56.10
4097;DHT22;2062;50.694;7.246;2024-03-22T05:11:10;11.40;56.00
4097;DHT22;2062;50.694;7.246;2024-03-22T05:13:37;11.40;56.00
4097;DHT22;2062;50.694;7.246;2024-03-22T05:16:06;11.40;56.10
4097;DHT22;2062;50.694;7.246;2024-03-22T05:18:33;11.40;56.00
4097;DHT22;2062;50.694;7.246;2024-03-22T05:20:59;11.40;56.00
4097;DHT22;2062;50.694;7.246;2024-03-22T05:23:26;11.40;55.90
4097;DHT22;2062;50.694;7.246;2024-03-22T05:25:52;11.40;56.20
4097;DHT22;2062;50.694;7.246;2024-03-22T05:28:18;11.40;56.00
4097;DHT22;2062;50.694;7.246;2024-03-22T05:30:44;11.40;56.00
4097;DHT22;2062;50.694;7.246;2024-03-22T05:33:12;11.40;55.80
4097;DHT22;2062;50.694;7.246;2024-03-22T05:35:38;11.40;55.90
4097;DHT22;2062;50.694;7.246;2024-03-22T05:38:06;11.40;55.90
4097;DHT22;2062;50.694;7.246;2024-03-22T05:40:32;11.40;55.90
4097;DHT22;2062;50.694;7.246;2024-03-22T05:42:59;11.40;56.00
4097;DHT22;2062;50.694;7.246;2024-03-22T05:45:25;11.40;56.00
4097;DHT22;2062;50.694;7.246;2024-03-22T05:47:51;11.40;55.90
4097;DHT22;2062;50.694;7.246;2024-03-22T05:50:18;11.40;55.90
4097;DHT22;2062;50.694;7.246;2024-03-22T05:52:46;11.40;56.10
4097;DHT22;2062;50.694;7.246;2024-03-22T05:55:11;11.40;55.90
4097;DHT22;2062;50.694;7.246;2024-03-22T05:57:38;11.40;56.00
4097;DHT22;2062;50.694;7.246;2024-03-22T06:00:05;11.40;56.00
4097;DHT22;2062;50.694;7.246;2024-03-22T06:02:33;11.40;55.90
4097;DHT22;2062;50.694;7.246;2024-03-22T06:04:59;11.40;55.90
4097;DHT22;2062;50.694;7.246;2024-03-22T06:07:27;11.40;56.00
4097;DHT22;2062;50.694;7.246;2024-03-22T06:09:53;11.50;56.10
4097;DHT22;2062;50.694;7.246;2024-03-22T06:12:20;11.50;56.00
4097;DHT22;2062;50.694;7.246;2024-03-22T06:14:47;11.50;56.10
4097;DHT22;2062;50.694;7.246;2024-03-22T06:17:16;11.50;55.90
4097;DHT22;2062;50.694;7.246;2024-03-22T06:19:42;11.50;56.10
4097;DHT22;2062;50.694;7.246;2024-03-22T06:22:09;11.50;56.20
4097;DHT22;2062;50.694;7.246;2024-03-22T06:24:36;11.60;56.30
4097;DHT22;2062;50.694;7.246;2024-03-22T06:27:03;11.50;56.00
4097;DHT22;2062;50.694;7.246;2024-03-22T06:29:29;11.60;56.00
4097;DHT22;2062;50.694;7.246;2024-03-22T06:31:56;11.60;56.40
4097;DHT22;2062;50.694;7.246;2024-03-22T06:34:22;11.60;56.00
4097;DHT22;2062;50.694;7.246;2024-03-22T06:36:48;11.60;56.00
4097;DHT22;2062;50.694;7.246;2024-03-22T06:39:16;11.70;56.00
4097;DHT22;2062;50.694;7.246;2024-03-22T06:41:45;11.70;56.00
4097;DHT22;2062;50.694;7.246;2024-03-22T06:44:10;11.70;56.00
4097;DHT22;2062;50.694;7.246;2024-03-22T06:46:39;11.70;55.90
4097;DHT22;2062;50.694;7.246;2024-03-22T06:49:05;11.80;55.90
4097;DHT22;2062;50.694;7.246;2024-03-22T06:51:32;11.70;55.90
4097;DHT22;2062;50.694;7.246;2024-03-22T06:53:57;11.80;55.80
4097;DHT22;2062;50.694;7.246;2024-03-22T06:56:24;11.80;55.90
4097;DHT22;2062;50.694;7.246;2024-03-22T06:58:51;11.80;55.70
4097;DHT22;2062;50.694;7.246;2024-03-22T07:01:18;12.00;55.80
4097;DHT22;2062;50.694;7.246;2024-03-22T07:03:46;11.90;55.70
4097;DHT22;2062;50.694;7.246;2024-03-22T07:06:14;11.90;55.80
4097;DHT22;2062;50.694;7.246;2024-03-22T07:08:40;11.90;55.70
4097;DHT22;2062;50.694;7.246;2024-03-22T07:11:07;11.90;55.60
4097;DHT22;2062;50.694;7.246;2024-03-22T07:13:34;11.90;55.70
4097;DHT22;2062;50.694;7.246;2024-03-22T07:16:03;12.00;55.60
4097;DHT22;2062;50.694;7.246;2024-03-22T07:18:29;12.00;55.60
4097;DHT22;2062;50.694;7.246;2024-03-22T07:20:55;12.10;55.70
4097;DHT22;2062;50.694;7.246;2024-03-22T07:23:23;12.00;55.60
4097;DHT22;2062;50.694;7.246;2024-03-22T07:25:50;12.10;55.60
4097;DHT22;2062;50.694;7.246;2024-03-22T07:28:15;12.10;55.50
4097;DHT22;2062;50.694;7.246;2024-03-22T07:30:42;12.10;55.50
4097;DHT22;2062;50.694;7.246;2024-03-22T07:33:10;12.10;55.50
4097;DHT22;2062;50.694;7.246;2024-03-22T07:35:38;12.10;55.50
4097;DHT22;2062;50.694;7.246;2024-03-22T07:38:04;12.20;55.40
4097;DHT22;2062;50.694;7.246;2024-03-22T07:40:31;12.20;55.50
4097;DHT22;2062;50.694;7.246;2024-03-22T07:42:57;12.30;55.70
4097;DHT22;2062;50.694;7.246;2024-03-22T07:45:24;12.40;55.90
4097;DHT22;2062;50.694;7.246;2024-03-22T07:47:50;12.60;56.10
4097;DHT22;2062;50.694;7.246;2024-03-22T07:50:18;12.70;56.30
4097;DHT22;2062;50.694;7.246;2024-03-22T07:52:44;12.90;56.40
4097;DHT22;2062;50.694;7.246;2024-03-22T07:55:11;13.10;57.10
4097;DHT22;2062;50.694;7.246;2024-03-22T07:57:37;13.30;57.30
4097;DHT22;2062;50.694;7.246;2024-03-22T08:00:05;13.50;57.60
4097;DHT22;2062;50.694;7.246;2024-03-22T08:02:31;13.90;57.50
4097;DHT22;2062;50.694;7.246;2024-03-22T08:04:58;14.30;57.80
4097;DHT22;2062;50.694;7.246;2024-03-22T08:07:25;14.50;57.60
4097;DHT22;2062;50.694;7.246;2024-03-22T08:09:52;14.80;57.30
4097;DHT22;2062;50.694;7.246;2024-03-22T08:12:18;15.10;57.00
4097;DHT22;2062;50.694;7.246;2024-03-22T08:14:45;15.40;56.60
4097;DHT22;2062;50.694;7.246;2024-03-22T08:17:11;15.60;56.20
4097;DHT22;2062;50.694;7.246;2024-03-22T08:19:37;15.80;55.60
4097;DHT22;2062;50.694;7.246;2024-03-22T08:22:04;16.00;54.80
4097;DHT22;2062;50.694;7.246;2024-03-22T08:24:32;16.10;54.70
4097;DHT22;2062;50.694;7.246;2024-03-22T08:26:58;16.20;54.20
4097;DHT22;2062;50.694;7.246;2024-03-22T08:29:24;16.30;53.70
4097;DHT22;2062;50.694;7.246;2024-03-22T08:31:50;16.30;53.30
4097;DHT22;2062;50.694;7.246;2024-03-22T08:34:17;16.30;53.00
4097;DHT22;2062;50.694;7.246;2024-03-22T08:36:43;16.40;52.80
4097;DHT22;2062;50.694;7.246;2024-03-22T08:39:10;16.40;52.80
4097;DHT22;2062;50.694;7.246;2024-03-22T08:41:37;16.40;52.80
4097;DHT22;2062;50.694;7.246;2024-03-22T08:44:04;16.50;52.90
4097;DHT22;2062;50.694;7.246;2024-03-22T08:46:30;16.50;53.20
4097;DHT22;2062;50.694;7.246;2024-03-22T08:48:57;16.70;53.20
4097;DHT22;2062;50.694;7.246;2024-03-22T08:51:23;16.80;53.40
4097;DHT22;2062;50.694;7.246;2024-03-22T08:53:50;17.00;53.50
4097;DHT22;2062;50.694;7.246;2024-03-22T08:56:16;17.20;53.70
4097;DHT22;2062;50.694;7.246;2024-03-22T08:58:44;17.40;53.60
4097;DHT22;2062;50.694;7.246;2024-03-22T09:01:10;17.50;53.30
4097;DHT22;2062;50.694;7.246;2024-03-22T09:03:37;17.70;53.20
4097;DHT22;2062;50.694;7.246;2024-03-22T09:06:02;17.80;52.70
4097;DHT22;2062;50.694;7.246;2024-03-22T09:08:29;17.90;52.50
4097;DHT22;2062;50.694;7.246;2024-03-22T09:10:55;18.00;52.20
4097;DHT22;2062;50.694;7.246;2024-03-22T09:13:22;18.10;51.80
4097;DHT22;2062;50.694;7.246;2024-03-22T09:15:56;18.10;51.50
4097;DHT22;2062;50.694;7.246;2024-03-22T09:18:23;18.20;51.30
4097;DHT22;2062;50.694;7.246;2024-03-22T09:20:49;18.30;51.00
4097;DHT22;2062;50.694;7.246;2024-03-22T09:23:15;18.20;50.60
4097;DHT22;2062;50.694;7.246;2024-03-22T09:25:41;18.20;50.40
4097;DHT22;2062;50.694;7.246;2024-03-22T09:28:08;18.10;50.30
4097;DHT22;2062;50.694;7.246;2024-03-22T09:30:37;18.20;50.10
4097;DHT22;2062;50.694;7.246;2024-03-22T09:33:06;18.10;50.20
4097;DHT22;2062;50.694;7.246;2024-03-22T09:35:33;18.10;50.00
4097;DHT22;2062;50.694;7.246;2024-03-22T09:38:00;18.20;50.00
4097;DHT22;2062;50.694;7.246;2024-03-22T09:40:26;18.10;50.00
4097;DHT22;2062;50.694;7.246;2024-03-22T09:42:53;18.10;50.00
4097;DHT22;2062;50.694;7.246;2024-03-22T09:45:19;18.00;49.80
4097;DHT22;2062;50.694;7.246;2024-03-22T09:47:48;17.90;49.80
4097;DHT22;2062;50.694;7.246;2024-03-22T09:50:17;17.90;49.70
4097;DHT22;2062;50.694;7.246;2024-03-22T09:52:44;17.80;49.90
4097;DHT22;2062;50.694;7.246;2024-03-22T09:55:10;17.70;50.00
4097;DHT22;2062;50.694;7.246;2024-03-22T09:57:39;17.60;49.90
4097;DHT22;2062;50.694;7.246;2024-03-22T10:00:07;17.60;50.00
4097;DHT22;2062;50.694;7.246;2024-03-22T10:02:34;17.50;50.00
4097;DHT22;2062;50.694;7.246;2024-03-22T10:05:00;17.40;50.00
4097;DHT22;2062;50.694;7.246;2024-03-22T10:07:29;17.40;50.00
4097;DHT22;2062;50.694;7.246;2024-03-22T10:09:58;17.30;50.10
4097;DHT22;2062;50.694;7.246;2024-03-22T10:12:25;17.30;50.20
4097;DHT22;2062;50.694;7.246;2024-03-22T10:14:52;17.20;50.20
4097;DHT22;2062;50.694;7.246;2024-03-22T10:17:18;17.20;51.00
4097;DHT22;2062;50.694;7.246;2024-03-22T10:19:45;17.20;50.40
4097;DHT22;2062;50.694;7.246;2024-03-22T10:22:11;17.10;50.40
4097;DHT22;2062;50.694;7.246;2024-03-22T10:24:39;17.10;50.50
4097;DHT22;2062;50.694;7.246;2024-03-22T10:27:05;17.10;50.40
4097;DHT22;2062;50.694;7.246;2024-03-22T10:29:33;17.10;50.60
4097;DHT22;2062;50.694;7.246;2024-03-22T10:32:00;17.10;50.60
4097;DHT22;2062;50.694;7.246;2024-03-22T10:34:28;17.10;50.30
4097;DHT22;2062;50.694;7.246;2024-03-22T10:36:55;17.20;50.20
4097;DHT22;2062;50.694;7.246;2024-03-22T10:39:23;17.20;50.00
4097;DHT22;2062;50.694;7.246;2024-03-22T10:41:52;17.20;49.90
4097;DHT22;2062;50.694;7.246;2024-03-22T10:44:19;17.30;50.20
4097;DHT22;2062;50.694;7.246;2024-03-22T10:46:46;17.20;50.10
4097;DHT22;2062;50.694;7.246;2024-03-22T10:49:16;17.30;50.20
4097;DHT22;2062;50.694;7.246;2024-03-22T10:51:43;17.30;50.20
4097;DHT22;2062;50.694;7.246;2024-03-22T10:54:12;17.40;50.00
4097;DHT22;2062;50.694;7.246;2024-03-22T10:56:40;17.40;49.90
4097;DHT22;2062;50.694;7.246;2024-03-22T10:59:08;17.40;49.70
4097;DHT22;2062;50.694;7.246;2024-03-22T11:01:34;17.50;49.60
4097;DHT22;2062;50.694;7.246;2024-03-22T11:04:03;17.50;49.40
4097;DHT22;2062;50.694;7.246;2024-03-22T11:06:31;17.50;49.10
4097;DHT22;2062;50.694;7.246;2024-03-22T11:08:59;17.50;48.80
4097;DHT22;2062;50.694;7.246;2024-03-22T11:11:28;17.50;48.80
4097;DHT22;2062;50.694;7.246;2024-03-22T11:13:54;17.50;48.70
4097;DHT22;2062;50.694;7.246;2024-03-22T11:16:23;17.40;48.70
4097;DHT22;2062;50.694;7.246;2024-03-22T11:18:49;17.40;49.20
4097;DHT22;2062;50.694;7.246;2024-03-22T11:21:15;17.40;48.80
4097;DHT22;2062;50.694;7.246;2024-03-22T11:23:45;17.40;48.80
4097;DHT22;2062;50.694;7.246;2024-03-22T11:26:11;17.40;48.90
4097;DHT22;2062;50.694;7.246;2024-03-22T11:28:38;17.50;48.90
4097;DHT22;2062;50.694;7.246;2024-03-22T11:31:04;17.50;48.70
4097;DHT22;2062;50.694;7.246;2024-03-22T11:33:32;17.50;48.60
4097;DHT22;2062;50.694;7.246;2024-03-22T11:35:58;17.50;48.60
4097;DHT22;2062;50.694;7.246;2024-03-22T11:38:26;17.50;48.50
4097;DHT22;2062;50.694;7.246;2024-03-22T11:40:53;17.50;48.40
4097;DHT22;2062;50.694;7.246;2024-03-22T11:43:21;17.60;48.50
4097;DHT22;2062;50.694;7.246;2024-03-22T11:45:47;17.70;48.50
4097;DHT22;2062;50.694;7.246;2024-03-22T11:48:14;17.60;48.30
4097;DHT22;2062;50.694;7.246;2024-03-22T11:50:41;17.70;48.20
4097;DHT22;2062;50.694;7.246;2024-03-22T11:53:08;17.80;48.20
4097;DHT22;2062;50.694;7.246;2024-03-22T11:55:36;17.80;48.40
4097;DHT22;2062;50.694;7.246;2024-03-22T11:58:03;17.90;48.50
4097;DHT22;2062;50.694;7.246;2024-03-22T12:00:29;18.00;48.50
4097;DHT22;2062;50.694;7.246;2024-03-22T12:02:55;18.10;48.20
4097;DHT22;2062;50.694;7.246;2024-03-22T12:05:21;18.20;48.00
4097;DHT22;2062;50.694;7.246;2024-03-22T12:07:51;18.20;48.00
4097;DHT22;2062;50.694;7.246;2024-03-22T12:10:17;18.30;47.80
4097;DHT22;2062;50.694;7.246;2024-03-22T12:12:44;18.30;47.80
4097;DHT22;2062;50.694;7.246;2024-03-22T12:15:09;18.30;47.80
4097;DHT22;2062;50.694;7.246;2024-03-22T12:17:36;18.40;47.60
4097;DHT22;2062;50.694;7.246;2024-03-22T12:20:06;18.40;46.80
4097;DHT22;2062;50.694;7.246;2024-03-22T12:22:34;18.40;46.90
4097;DHT22;2062;50.694;7.246;2024-03-22T12:25:02;18.40;46.60
4097;DHT22;2062;50.694;7.246;2024-03-22T12:27:30;18.40;46.30
4097;DHT22;2062;50.694;7.246;2024-03-22T12:29:56;18.40;46.00
4097;DHT22;2062;50.694;7.246;2024-03-22T12:32:22;18.30;45.90
4097;DHT22;2062;50.694;7.246;2024-03-22T12:34:49;18.30;45.30
4097;DHT22;2062;50.694;7.246;2024-03-22T12:37:15;18.20;45.60
4097;DHT22;2062;50.694;7.246;2024-03-22T12:39:41;18.20;45.60
4097;DHT22;2062;50.694;7.246;2024-03-22T12:42:09;18.20;45.70
4097;DHT22;2062;50.694;7.246;2024-03-22T12:44:35;18.20;45.70
4097;DHT22;2062;50.694;7.246;2024-03-22T12:47:01;18.10;45.20
4097;DHT22;2062;50.694;7.246;2024-03-22T12:49:29;18.10;45.50
4097;DHT22;2062;50.694;7.246;2024-03-22T12:51:55;18.10;45.60
4097;DHT22;2062;50.694;7.246;2024-03-22T12:54:22;18.10;45.70
4097;DHT22;2062;50.694;7.246;2024-03-22T12:56:48;18.00;45.30
4097;DHT22;2062;50.694;7.246;2024-03-22T12:59:16;18.00;45.50
4097;DHT22;2062;50.694;7.246;2024-03-22T13:01:42;18.00;45.50
4097;DHT22;2062;50.694;7.246;2024-03-22T13:04:09;17.90;45.60
4097;DHT22;2062;50.694;7.246;2024-03-22T13:06:35;18.00;45.50
4097;DHT22;2062;50.694;7.246;2024-03-22T13:09:02;17.90;45.20
4097;DHT22;2062;50.694;7.246;2024-03-22T13:11:30;17.80;45.20
4097;DHT22;2062;50.694;7.246;2024-03-22T13:13:57;17.80;45.20
4097;DHT22;2062;50.694;7.246;2024-03-22T13:16:24;17.80;45.00
4097;DHT22;2062;50.694;7.246;2024-03-22T13:18:51;17.70;45.10
4097;DHT22;2062;50.694;7.246;2024-03-22T13:21:17;17.70;44.60
4097;DHT22;2062;50.694;7.246;2024-03-22T13:23:45;17.70;44.60
4097;DHT22;2062;50.694;7.246;2024-03-22T13:26:11;17.60;44.40
4097;DHT22;2062;50.694;7.246;2024-03-22T13:28:37;17.60;44.40
4097;DHT22;2062;50.694;7.246;2024-03-22T13:31:03;17.60;44.50
4097;DHT22;2062;50.694;7.246;2024-03-22T13:33:33;17.50;44.70
4097;DHT22;2062;50.694;7.246;2024-03-22T13:35:59;17.50;44.70
4097;DHT22;2062;50.694;7.246;2024-03-22T13:38:26;17.50;44.90
4097;DHT22;2062;50.694;7.246;2024-03-22T13:40:55;17.60;45.00
4097;DHT22;2062;50.694;7.246;2024-03-22T13:43:22;17.60;45.00
4097;DHT22;2062;50.694;7.246;2024-03-22T13:45:51;17.70;44.90
4097;DHT22;2062;50.694;7.246;2024-03-22T13:48:20;17.70;45.20
4097;DHT22;2062;50.694;7.246;2024-03-22T13:50:51;17.80;45.00
4097;DHT22;2062;50.694;7.246;2024-03-22T13:53:18;18.00;45.00
4097;DHT22;2062;50.694;7.246;2024-03-22T13:55:44;18.10;44.80
4097;DHT22;2062;50.694;7.246;2024-03-22T13:58:11;18.20;45.10
4097;DHT22;2062;50.694;7.246;2024-03-22T14:00:38;18.30;45.00
4097;DHT22;2062;50.694;7.246;2024-03-22T14:03:05;18.40;44.70
4097;DHT22;2062;50.694;7.246;2024-03-22T14:05:31;18.40;44.70
4097;DHT22;2062;50.694;7.246;2024-03-22T14:07:59;18.50;45.00
4097;DHT22;2062;50.694;7.246;2024-03-22T14:10:25;18.60;45.00
4097;DHT22;2062;50.694;7.246;2024-03-22T14:12:55;18.70;45.10
4097;DHT22;2062;50.694;7.246;2024-03-22T14:15:21;18.80;45.20
4097;DHT22;2062;50.694;7.246;2024-03-22T14:17:50;18.90;45.20
4097;DHT22;2062;50.694;7.246;2024-03-22T14:20:16;18.90;45.00
4097;DHT22;2062;50.694;7.246;2024-03-22T14:22:43;19.10;45.00
4097;DHT22;2062;50.694;7.246;2024-03-22T14:25:10;19.20;44.50
4097;DHT22;2062;50.694;7.246;2024-03-22T14:27:37;19.20;44.20
4097;DHT22;2062;50.694;7.246;2024-03-22T14:30:05;19.20;43.80
4097;DHT22;2062;50.694;7.246;2024-03-22T14:32:33;19.30;43.00
4097;DHT22;2062;50.694;7.246;2024-03-22T14:34:59;19.30;42.00
4097;DHT22;2062;50.694;7.246;2024-03-22T14:37:26;19.30;41.90
4097;DHT22;2062;50.694;7.246;2024-03-22T14:39:52;19.30;41.90
4097;DHT22;2062;50.694;7.246;2024-03-22T14:42:21;19.30;41.70
4097;DHT22;2062;50.694;7.246;2024-03-22T14:44:46;19.30;41.70
4097;DHT22;2062;50.694;7.246;2024-03-22T14:47:13;19.40;41.80
4097;DHT22;2062;50.694;7.246;2024-03-22T14:49:39;19.40;41.80
4097;DHT22;2062;50.694;7.246;2024-03-22T14:52:07;19.40;41.30
4097;DHT22;2062;50.694;7.246;2024-03-22T14:54:33;19.40;41.10
4097;DHT22;2062;50.694;7.246;2024-03-22T14:57:00;19.50;40.70
4097;DHT22;2062;50.694;7.246;2024-03-22T14:59:28;19.50;40.50
4097;DHT22;2062;50.694;7.246;2024-03-22T15:01:55;19.50;40.20
4097;DHT22;2062;50.694;7.246;2024-03-22T15:04:21;19.50;40.40
4097;DHT22;2062;50.694;7.246;2024-03-22T15:06:48;19.40;40.40
4097;DHT22;2062;50.694;7.246;2024-03-22T15:09:17;19.40;39.50
4097;DHT22;2062;50.694;7.246;2024-03-22T15:11:44;19.40;39.40
4097;DHT22;2062;50.694;7.246;2024-03-22T15:14:10;19.30;39.20
4097;DHT22;2062;50.694;7.246;2024-03-22T15:16:38;19.30;39.50
4097;DHT22;2062;50.694;7.246;2024-03-22T15:19:05;19.20;39.00
4097;DHT22;2062;50.694;7.246;2024-03-22T15:21:32;19.20;39.10
4097;DHT22;2062;50.694;7.246;2024-03-22T15:23:58;19.10;39.20
4097;DHT22;2062;50.694;7.246;2024-03-22T15:26:25;19.10;39.50
4097;DHT22;2062;50.694;7.246;2024-03-22T15:28:50;19.00;39.30
4097;DHT22;2062;50.694;7.246;2024-03-22T15:31:17;19.00;39.40
4097;DHT22;2062;50.694;7.246;2024-03-22T15:33:45;19.00;39.60
4097;DHT22;2062;50.694;7.246;2024-03-22T15:36:11;19.00;39.70
4097;DHT22;2062;50.694;7.246;2024-03-22T15:38:37;18.90;39.90
4097;DHT22;2062;50.694;7.246;2024-03-22T15:41:04;18.90;39.90
4097;DHT22;2062;50.694;7.246;2024-03-22T15:43:30;18.90;40.20
4097;DHT22;2062;50.694;7.246;2024-03-22T15:45:57;18.90;40.30
4097;DHT22;2062;50.694;7.246;2024-03-22T15:48:23;18.80;40.40
4097;DHT22;2062;50.694;7.246;2024-03-22T15:50:51;18.90;40.70
4097;DHT22;2062;50.694;7.246;2024-03-22T15:53:17;18.80;40.40
4097;DHT22;2062;50.694;7.246;2024-03-22T15:55:44;18.80;40.50
4097;DHT22;2062;50.694;7.246;2024-03-22T15:58:09;18.80;40.20